Adrian, Michigan
Current Conditions -  °F | °C
As of 1:53 PM on Monday 20 Oct 2014 (Local Time) from KADG Reporting Station
Overcast Overcast  
Wind Chill: 11°   Ceiling: 2200
Heat Index: 11°   Visibility: 9mi
Dew Point: 10°   Wind: 7mph
Humidity: 93%   Direction: 280°W
Pressure: 29.81"   Gusts: NA
Location:  41.9°N, 84.04°W
Report Text: KADG 201753Z AUTO 28006KT 9SM BKN022 BKN055 OVC070 11/10 A2981 RMK AO2 RAE47 SLP100 P0001 60001 T01110100 10128 20083 55010
Loading
Personal Weather Stations






























Interactive Weather Map New forecast layout! Learn more

10-Day Weather Forecast

Advertisements
Track Severe Weather on mobile